sensor_id;sensor_type;location;lat;lon;timestamp;P1;durP1;ratioP1;P2;durP2;ratioP2
2966;SDS011;1493;51.496;7.210;2023-01-01T00:01:14;19.63;;;9.23;;
2966;SDS011;1493;51.496;7.210;2023-01-01T00:03:41;12.60;;;7.53;;
2966;SDS011;1493;51.496;7.210;2023-01-01T00:06:09;13.13;;;7.37;;
2966;SDS011;1493;51.496;7.210;2023-01-01T00:08:37;11.33;;;7.13;;
2966;SDS011;1493;51.496;7.210;2023-01-01T00:11:05;15.63;;;7.90;;
2966;SDS011;1493;51.496;7.210;2023-01-01T00:13:33;13.53;;;7.10;;
2966;SDS011;1493;51.496;7.210;2023-01-01T00:16:04;14.53;;;8.23;;
2966;SDS011;1493;51.496;7.210;2023-01-01T00:18:32;12.77;;;7.30;;
2966;SDS011;1493;51.496;7.210;2023-01-01T00:21:02;10.80;;;8.60;;
2966;SDS011;1493;51.496;7.210;2023-01-01T00:23:29;10.87;;;7.97;;
2966;SDS011;1493;51.496;7.210;2023-01-01T00:25:56;20.70;;;7.40;;
2966;SDS011;1493;51.496;7.210;2023-01-01T00:28:24;12.90;;;7.40;;
2966;SDS011;1493;51.496;7.210;2023-01-01T00:30:50;13.57;;;8.10;;
2966;SDS011;1493;51.496;7.210;2023-01-01T00:33:19;15.23;;;9.70;;
2966;SDS011;1493;51.496;7.210;2023-01-01T00:35:45;21.43;;;12.93;;
2966;SDS011;1493;51.496;7.210;2023-01-01T00:38:12;15.70;;;11.00;;
2966;SDS011;1493;51.496;7.210;2023-01-01T00:40:39;15.70;;;11.03;;
2966;SDS011;1493;51.496;7.210;2023-01-01T00:43:06;17.77;;;11.17;;
2966;SDS011;1493;51.496;7.210;2023-01-01T00:45:33;18.40;;;11.60;;
2966;SDS011;1493;51.496;7.210;2023-01-01T00:47:59;16.40;;;10.80;;
2966;SDS011;1493;51.496;7.210;2023-01-01T00:50:28;19.60;;;12.43;;
2966;SDS011;1493;51.496;7.210;2023-01-01T00:52:54;20.50;;;12.43;;
2966;SDS011;1493;51.496;7.210;2023-01-01T00:55:21;17.60;;;12.43;;
2966;SDS011;1493;51.496;7.210;2023-01-01T00:57:48;19.90;;;15.00;;
2966;SDS011;1493;51.496;7.210;2023-01-01T01:00:15;18.10;;;12.07;;
2966;SDS011;1493;51.496;7.210;2023-01-01T01:02:42;18.63;;;12.13;;
2966;SDS011;1493;51.496;7.210;2023-01-01T01:05:09;19.80;;;11.77;;
2966;SDS011;1493;51.496;7.210;2023-01-01T01:07:37;15.57;;;12.07;;
2966;SDS011;1493;51.496;7.210;2023-01-01T01:10:05;16.17;;;10.47;;
2966;SDS011;1493;51.496;7.210;2023-01-01T01:12:33;14.37;;;9.93;;
2966;SDS011;1493;51.496;7.210;2023-01-01T01:15:01;13.33;;;10.33;;
2966;SDS011;1493;51.496;7.210;2023-01-01T01:17:28;15.90;;;9.80;;
2966;SDS011;1493;51.496;7.210;2023-01-01T01:19:55;13.57;;;9.10;;
2966;SDS011;1493;51.496;7.210;2023-01-01T01:22:22;12.47;;;8.30;;
2966;SDS011;1493;51.496;7.210;2023-01-01T01:24:50;13.70;;;7.80;;
2966;SDS011;1493;51.496;7.210;2023-01-01T01:27:17;9.87;;;7.00;;
2966;SDS011;1493;51.496;7.210;2023-01-01T01:29:43;9.37;;;6.07;;
2966;SDS011;1493;51.496;7.210;2023-01-01T01:32:10;10.47;;;6.43;;
2966;SDS011;1493;51.496;7.210;2023-01-01T01:34:38;13.00;;;6.87;;
2966;SDS011;1493;51.496;7.210;2023-01-01T01:37:04;10.10;;;6.37;;
2966;SDS011;1493;51.496;7.210;2023-01-01T01:39:31;10.37;;;6.80;;
2966;SDS011;1493;51.496;7.210;2023-01-01T01:42:00;9.23;;;6.33;;
2966;SDS011;1493;51.496;7.210;2023-01-01T01:44:47;8.90;;;6.60;;
2966;SDS011;1493;51.496;7.210;2023-01-01T01:47:21;9.23;;;5.53;;
2966;SDS011;1493;51.496;7.210;2023-01-01T01:49:52;7.73;;;5.70;;
2966;SDS011;1493;51.496;7.210;2023-01-01T01:52:22;9.80;;;5.90;;
2966;SDS011;1493;51.496;7.210;2023-01-01T01:54:50;9.50;;;5.50;;
2966;SDS011;1493;51.496;7.210;2023-01-01T01:57:18;9.30;;;5.20;;
2966;SDS011;1493;51.496;7.210;2023-01-01T01:59:46;10.43;;;5.70;;
2966;SDS011;1493;51.496;7.210;2023-01-01T02:02:17;9.27;;;5.20;;
2966;SDS011;1493;51.496;7.210;2023-01-01T02:04:52;5.80;;;3.97;;
2966;SDS011;1493;51.496;7.210;2023-01-01T02:07:19;6.40;;;4.00;;
2966;SDS011;1493;51.496;7.210;2023-01-01T02:09:49;8.83;;;4.57;;
2966;SDS011;1493;51.496;7.210;2023-01-01T02:12:16;6.67;;;3.80;;
2966;SDS011;1493;51.496;7.210;2023-01-01T02:14:44;5.17;;;3.37;;
2966;SDS011;1493;51.496;7.210;2023-01-01T02:17:13;6.73;;;3.30;;
2966;SDS011;1493;51.496;7.210;2023-01-01T02:19:51;6.80;;;3.60;;
2966;SDS011;1493;51.496;7.210;2023-01-01T02:22:29;4.70;;;2.80;;
2966;SDS011;1493;51.496;7.210;2023-01-01T02:25:10;4.20;;;2.70;;
2966;SDS011;1493;51.496;7.210;2023-01-01T02:27:46;6.30;;;2.30;;
2966;SDS011;1493;51.496;7.210;2023-01-01T02:30:21;5.70;;;2.30;;
2966;SDS011;1493;51.496;7.210;2023-01-01T02:32:48;5.23;;;2.00;;
2966;SDS011;1493;51.496;7.210;2023-01-01T02:35:20;4.33;;;2.00;;
2966;SDS011;1493;51.496;7.210;2023-01-01T02:38:02;7.77;;;2.27;;
2966;SDS011;1493;51.496;7.210;2023-01-01T02:40:33;3.87;;;1.90;;
2966;SDS011;1493;51.496;7.210;2023-01-01T02:43:05;9.40;;;2.70;;
2966;SDS011;1493;51.496;7.210;2023-01-01T02:45:34;5.40;;;1.40;;
2966;SDS011;1493;51.496;7.210;2023-01-01T02:48:06;4.10;;;1.90;;
2966;SDS011;1493;51.496;7.210;2023-01-01T02:51:22;5.83;;;1.90;;
2966;SDS011;1493;51.496;7.210;2023-01-01T02:54:07;5.03;;;1.63;;
2966;SDS011;1493;51.496;7.210;2023-01-01T02:56:43;2.67;;;1.40;;
2966;SDS011;1493;51.496;7.210;2023-01-01T02:59:16;5.17;;;2.20;;
2966;SDS011;1493;51.496;7.210;2023-01-01T03:02:09;3.77;;;1.57;;
2966;SDS011;1493;51.496;7.210;2023-01-01T03:04:51;5.73;;;1.80;;
2966;SDS011;1493;51.496;7.210;2023-01-01T03:07:29;4.40;;;2.00;;
2966;SDS011;1493;51.496;7.210;2023-01-01T03:10:06;7.10;;;1.73;;
2966;SDS011;1493;51.496;7.210;2023-01-01T03:12:40;4.00;;;1.23;;
2966;SDS011;1493;51.496;7.210;2023-01-01T03:15:13;3.93;;;1.30;;
2966;SDS011;1493;51.496;7.210;2023-01-01T03:17:48;4.90;;;1.77;;
2966;SDS011;1493;51.496;7.210;2023-01-01T03:20:23;5.10;;;1.33;;
2966;SDS011;1493;51.496;7.210;2023-01-01T03:22:56;4.80;;;1.60;;
2966;SDS011;1493;51.496;7.210;2023-01-01T03:25:28;3.43;;;2.03;;
2966;SDS011;1493;51.496;7.210;2023-01-01T03:27:58;2.70;;;1.23;;
2966;SDS011;1493;51.496;7.210;2023-01-01T03:30:29;3.80;;;1.30;;
2966;SDS011;1493;51.496;7.210;2023-01-01T03:32:59;2.00;;;1.20;;
2966;SDS011;1493;51.496;7.210;2023-01-01T03:35:35;5.33;;;1.20;;
2966;SDS011;1493;51.496;7.210;2023-01-01T03:38:08;5.30;;;2.00;;
2966;SDS011;1493;51.496;7.210;2023-01-01T03:40:39;9.13;;;1.47;;
2966;SDS011;1493;51.496;7.210;2023-01-01T03:43:08;2.70;;;1.30;;
2966;SDS011;1493;51.496;7.210;2023-01-01T03:45:39;4.80;;;1.57;;
2966;SDS011;1493;51.496;7.210;2023-01-01T03:48:08;2.57;;;1.30;;
2966;SDS011;1493;51.496;7.210;2023-01-01T03:50:39;4.30;;;1.50;;
2966;SDS011;1493;51.496;7.210;2023-01-01T03:53:16;5.60;;;1.40;;
2966;SDS011;1493;51.496;7.210;2023-01-01T03:55:53;3.80;;;1.50;;
2966;SDS011;1493;51.496;7.210;2023-01-01T03:58:30;3.50;;;1.30;;
2966;SDS011;1493;51.496;7.210;2023-01-01T04:01:05;4.37;;;1.40;;
2966;SDS011;1493;51.496;7.210;2023-01-01T04:03:36;4.03;;;1.40;;
2966;SDS011;1493;51.496;7.210;2023-01-01T04:06:07;5.17;;;1.57;;
2966;SDS011;1493;51.496;7.210;2023-01-01T04:08:35;4.47;;;1.40;;
2966;SDS011;1493;51.496;7.210;2023-01-01T04:11:04;5.27;;;1.20;;
2966;SDS011;1493;51.496;7.210;2023-01-01T04:13:54;3.50;;;1.40;;
2966;SDS011;1493;51.496;7.210;2023-01-01T04:16:20;5.13;;;1.60;;
2966;SDS011;1493;51.496;7.210;2023-01-01T04:18:47;3.03;;;1.40;;
2966;SDS011;1493;51.496;7.210;2023-01-01T04:21:15;3.30;;;1.33;;
2966;SDS011;1493;51.496;7.210;2023-01-01T04:23:42;3.10;;;1.27;;
2966;SDS011;1493;51.496;7.210;2023-01-01T04:26:11;3.80;;;1.00;;
2966;SDS011;1493;51.496;7.210;2023-01-01T04:28:38;4.33;;;1.77;;
2966;SDS011;1493;51.496;7.210;2023-01-01T04:31:06;2.00;;;1.00;;
2966;SDS011;1493;51.496;7.210;2023-01-01T04:33:33;3.60;;;1.90;;
2966;SDS011;1493;51.496;7.210;2023-01-01T04:36:01;4.53;;;1.50;;
2966;SDS011;1493;51.496;7.210;2023-01-01T04:38:33;6.83;;;1.90;;
2966;SDS011;1493;51.496;7.210;2023-01-01T04:41:07;5.13;;;1.37;;
2966;SDS011;1493;51.496;7.210;2023-01-01T04:43:34;3.03;;;1.13;;
2966;SDS011;1493;51.496;7.210;2023-01-01T04:46:03;3.80;;;1.30;;
2966;SDS011;1493;51.496;7.210;2023-01-01T04:48:30;4.83;;;1.37;;
2966;SDS011;1493;51.496;7.210;2023-01-01T04:50:58;4.13;;;1.63;;
2966;SDS011;1493;51.496;7.210;2023-01-01T04:53:27;7.87;;;1.43;;
2966;SDS011;1493;51.496;7.210;2023-01-01T04:55:57;5.20;;;1.30;;
2966;SDS011;1493;51.496;7.210;2023-01-01T04:58:28;3.93;;;1.60;;
2966;SDS011;1493;51.496;7.210;2023-01-01T05:00:55;5.30;;;1.40;;
2966;SDS011;1493;51.496;7.210;2023-01-01T05:03:22;2.77;;;1.10;;
2966;SDS011;1493;51.496;7.210;2023-01-01T05:05:57;3.00;;;1.30;;
2966;SDS011;1493;51.496;7.210;2023-01-01T05:08:26;5.10;;;1.77;;
2966;SDS011;1493;51.496;7.210;2023-01-01T05:10:59;4.57;;;1.50;;
2966;SDS011;1493;51.496;7.210;2023-01-01T05:13:26;3.77;;;1.73;;
2966;SDS011;1493;51.496;7.210;2023-01-01T05:15:53;2.87;;;1.57;;
2966;SDS011;1493;51.496;7.210;2023-01-01T05:18:20;4.23;;;1.80;;
2966;SDS011;1493;51.496;7.210;2023-01-01T05:20:47;3.60;;;1.47;;
2966;SDS011;1493;51.496;7.210;2023-01-01T05:23:14;5.23;;;1.50;;
2966;SDS011;1493;51.496;7.210;2023-01-01T05:25:41;4.13;;;1.23;;
2966;SDS011;1493;51.496;7.210;2023-01-01T05:28:09;3.23;;;1.50;;
2966;SDS011;1493;51.496;7.210;2023-01-01T05:30:37;4.30;;;1.37;;
2966;SDS011;1493;51.496;7.210;2023-01-01T05:33:05;10.17;;;1.60;;
2966;SDS011;1493;51.496;7.210;2023-01-01T05:35:32;6.07;;;1.90;;
2966;SDS011;1493;51.496;7.210;2023-01-01T05:37:58;2.83;;;1.23;;
2966;SDS011;1493;51.496;7.210;2023-01-01T05:40:25;3.43;;;1.27;;
2966;SDS011;1493;51.496;7.210;2023-01-01T05:42:52;3.13;;;1.37;;
2966;SDS011;1493;51.496;7.210;2023-01-01T05:45:20;8.47;;;1.97;;
2966;SDS011;1493;51.496;7.210;2023-01-01T05:47:47;7.30;;;2.47;;
2966;SDS011;1493;51.496;7.210;2023-01-01T05:50:14;2.63;;;1.13;;
2966;SDS011;1493;51.496;7.210;2023-01-01T05:52:40;5.10;;;1.57;;
2966;SDS011;1493;51.496;7.210;2023-01-01T05:55:07;3.17;;;1.40;;
2966;SDS011;1493;51.496;7.210;2023-01-01T05:57:34;4.77;;;1.30;;
2966;SDS011;1493;51.496;7.210;2023-01-01T06:00:01;2.57;;;1.03;;
2966;SDS011;1493;51.496;7.210;2023-01-01T06:02:30;4.57;;;1.30;;
2966;SDS011;1493;51.496;7.210;2023-01-01T06:04:57;3.90;;;1.40;;
2966;SDS011;1493;51.496;7.210;2023-01-01T06:07:23;4.60;;;1.40;;
2966;SDS011;1493;51.496;7.210;2023-01-01T06:09:50;4.53;;;1.30;;
2966;SDS011;1493;51.496;7.210;2023-01-01T06:12:17;5.00;;;1.80;;
2966;SDS011;1493;51.496;7.210;2023-01-01T06:14:44;2.40;;;1.23;;
2966;SDS011;1493;51.496;7.210;2023-01-01T06:17:11;4.53;;;1.70;;
2966;SDS011;1493;51.496;7.210;2023-01-01T06:19:39;4.67;;;1.40;;
2966;SDS011;1493;51.496;7.210;2023-01-01T06:22:06;4.20;;;1.30;;
2966;SDS011;1493;51.496;7.210;2023-01-01T06:24:32;6.27;;;1.50;;
2966;SDS011;1493;51.496;7.210;2023-01-01T06:26:59;2.47;;;1.30;;
2966;SDS011;1493;51.496;7.210;2023-01-01T06:29:26;4.57;;;1.53;;
2966;SDS011;1493;51.496;7.210;2023-01-01T06:31:53;2.60;;;1.30;;
2966;SDS011;1493;51.496;7.210;2023-01-01T06:34:19;9.67;;;3.20;;
2966;SDS011;1493;51.496;7.210;2023-01-01T06:36:48;4.33;;;1.40;;
2966;SDS011;1493;51.496;7.210;2023-01-01T06:39:15;6.30;;;1.93;;
2966;SDS011;1493;51.496;7.210;2023-01-01T06:41:41;4.43;;;1.60;;
2966;SDS011;1493;51.496;7.210;2023-01-01T06:44:08;7.37;;;1.80;;
2966;SDS011;1493;51.496;7.210;2023-01-01T06:46:35;7.30;;;1.67;;
2966;SDS011;1493;51.496;7.210;2023-01-01T06:49:02;4.40;;;1.40;;
2966;SDS011;1493;51.496;7.210;2023-01-01T06:51:31;4.50;;;1.70;;
2966;SDS011;1493;51.496;7.210;2023-01-01T06:54:01;3.40;;;1.43;;
2966;SDS011;1493;51.496;7.210;2023-01-01T06:56:29;4.77;;;1.37;;
2966;SDS011;1493;51.496;7.210;2023-01-01T06:58:56;5.20;;;1.50;;
2966;SDS011;1493;51.496;7.210;2023-01-01T07:01:24;9.50;;;1.40;;
2966;SDS011;1493;51.496;7.210;2023-01-01T07:03:53;6.47;;;1.90;;
2966;SDS011;1493;51.496;7.210;2023-01-01T07:06:21;3.07;;;1.33;;
2966;SDS011;1493;51.496;7.210;2023-01-01T07:08:49;3.83;;;1.70;;
2966;SDS011;1493;51.496;7.210;2023-01-01T07:11:17;5.03;;;1.70;;
2966;SDS011;1493;51.496;7.210;2023-01-01T07:13:44;3.47;;;1.60;;
2966;SDS011;1493;51.496;7.210;2023-01-01T07:16:11;3.93;;;1.00;;
2966;SDS011;1493;51.496;7.210;2023-01-01T07:18:38;4.27;;;1.30;;
2966;SDS011;1493;51.496;7.210;2023-01-01T07:21:06;7.50;;;2.10;;
2966;SDS011;1493;51.496;7.210;2023-01-01T07:23:51;4.60;;;1.80;;
2966;SDS011;1493;51.496;7.210;2023-01-01T07:26:21;5.77;;;1.80;;
2966;SDS011;1493;51.496;7.210;2023-01-01T07:28:48;2.93;;;1.40;;
2966;SDS011;1493;51.496;7.210;2023-01-01T07:31:15;5.60;;;1.90;;
2966;SDS011;1493;51.496;7.210;2023-01-01T07:33:42;3.20;;;1.47;;
2966;SDS011;1493;51.496;7.210;2023-01-01T07:36:09;3.40;;;1.30;;
2966;SDS011;1493;51.496;7.210;2023-01-01T07:38:36;5.90;;;1.23;;
2966;SDS011;1493;51.496;7.210;2023-01-01T07:41:03;4.17;;;1.50;;
2966;SDS011;1493;51.496;7.210;2023-01-01T07:43:31;6.60;;;1.73;;
2966;SDS011;1493;51.496;7.210;2023-01-01T07:45:58;4.30;;;1.67;;
2966;SDS011;1493;51.496;7.210;2023-01-01T07:48:25;4.13;;;1.77;;
2966;SDS011;1493;51.496;7.210;2023-01-01T07:50:52;4.23;;;1.40;;
2966;SDS011;1493;51.496;7.210;2023-01-01T07:53:19;2.87;;;1.70;;
2966;SDS011;1493;51.496;7.210;2023-01-01T07:55:46;4.70;;;1.80;;
2966;SDS011;1493;51.496;7.210;2023-01-01T07:58:13;9.07;;;1.70;;
2966;SDS011;1493;51.496;7.210;2023-01-01T08:00:43;8.23;;;2.63;;
2966;SDS011;1493;51.496;7.210;2023-01-01T08:03:12;5.13;;;1.90;;
2966;SDS011;1493;51.496;7.210;2023-01-01T08:05:39;4.50;;;1.87;;
2966;SDS011;1493;51.496;7.210;2023-01-01T08:08:06;3.70;;;1.50;;
2966;SDS011;1493;51.496;7.210;2023-01-01T08:10:33;4.03;;;1.53;;
2966;SDS011;1493;51.496;7.210;2023-01-01T08:13:00;3.90;;;1.83;;
2966;SDS011;1493;51.496;7.210;2023-01-01T08:15:27;2.90;;;1.60;;
2966;SDS011;1493;51.496;7.210;2023-01-01T08:17:58;3.57;;;1.63;;
2966;SDS011;1493;51.496;7.210;2023-01-01T08:20:27;3.80;;;1.60;;
2966;SDS011;1493;51.496;7.210;2023-01-01T08:22:55;3.23;;;1.60;;
2966;SDS011;1493;51.496;7.210;2023-01-01T08:25:22;5.17;;;1.60;;
2966;SDS011;1493;51.496;7.210;2023-01-01T08:27:49;2.97;;;1.30;;
2966;SDS011;1493;51.496;7.210;2023-01-01T08:30:15;3.67;;;1.80;;
2966;SDS011;1493;51.496;7.210;2023-01-01T08:32:42;4.10;;;1.93;;
2966;SDS011;1493;51.496;7.210;2023-01-01T08:35:10;5.27;;;2.10;;
2966;SDS011;1493;51.496;7.210;2023-01-01T08:37:37;7.77;;;1.73;;
2966;SDS011;1493;51.496;7.210;2023-01-01T08:40:05;3.60;;;2.00;;
2966;SDS011;1493;51.496;7.210;2023-01-01T08:42:33;7.03;;;1.73;;
2966;SDS011;1493;51.496;7.210;2023-01-01T08:44:59;5.20;;;1.90;;
2966;SDS011;1493;51.496;7.210;2023-01-01T08:47:26;4.30;;;1.60;;
2966;SDS011;1493;51.496;7.210;2023-01-01T08:49:53;4.33;;;1.70;;
2966;SDS011;1493;51.496;7.210;2023-01-01T08:52:21;5.00;;;2.00;;
2966;SDS011;1493;51.496;7.210;2023-01-01T08:54:48;7.43;;;2.07;;
2966;SDS011;1493;51.496;7.210;2023-01-01T08:57:15;6.40;;;1.87;;
2966;SDS011;1493;51.496;7.210;2023-01-01T08:59:42;4.50;;;2.33;;
2966;SDS011;1493;51.496;7.210;2023-01-01T09:02:09;17.60;;;11.20;;
2966;SDS011;1493;51.496;7.210;2023-01-01T09:04:36;30.63;;;20.73;;
2966;SDS011;1493;51.496;7.210;2023-01-01T09:07:03;18.47;;;11.40;;
2966;SDS011;1493;51.496;7.210;2023-01-01T09:09:31;10.43;;;3.43;;
2966;SDS011;1493;51.496;7.210;2023-01-01T09:11:58;4.60;;;2.70;;
2966;SDS011;1493;51.496;7.210;2023-01-01T09:14:30;6.33;;;2.10;;
2966;SDS011;1493;51.496;7.210;2023-01-01T09:16:58;6.23;;;1.80;;
2966;SDS011;1493;51.496;7.210;2023-01-01T09:19:25;4.93;;;2.17;;
2966;SDS011;1493;51.496;7.210;2023-01-01T09:21:52;6.70;;;3.30;;
2966;SDS011;1493;51.496;7.210;2023-01-01T09:24:19;6.07;;;1.83;;
2966;SDS011;1493;51.496;7.210;2023-01-01T09:26:47;8.27;;;3.53;;
2966;SDS011;1493;51.496;7.210;2023-01-01T09:29:14;2.43;;;1.60;;
2966;SDS011;1493;51.496;7.210;2023-01-01T09:31:44;3.97;;;2.03;;
2966;SDS011;1493;51.496;7.210;2023-01-01T09:34:11;5.40;;;1.43;;
2966;SDS011;1493;51.496;7.210;2023-01-01T09:36:39;5.37;;;1.97;;
2966;SDS011;1493;51.496;7.210;2023-01-01T09:39:06;3.20;;;1.60;;
2966;SDS011;1493;51.496;7.210;2023-01-01T09:41:36;6.37;;;2.13;;
2966;SDS011;1493;51.496;7.210;2023-01-01T09:44:46;4.23;;;1.60;;
2966;SDS011;1493;51.496;7.210;2023-01-01T09:47:22;6.43;;;2.07;;
2966;SDS011;1493;51.496;7.210;2023-01-01T09:49:51;3.67;;;1.87;;
2966;SDS011;1493;51.496;7.210;2023-01-01T09:52:22;4.30;;;1.67;;
2966;SDS011;1493;51.496;7.210;2023-01-01T09:54:54;4.53;;;1.53;;
2966;SDS011;1493;51.496;7.210;2023-01-01T09:57:26;4.00;;;1.90;;
2966;SDS011;1493;51.496;7.210;2023-01-01T09:59:54;5.97;;;1.77;;
2966;SDS011;1493;51.496;7.210;2023-01-01T10:02:29;8.20;;;1.50;;
2966;SDS011;1493;51.496;7.210;2023-01-01T10:05:07;5.27;;;2.00;;
2966;SDS011;1493;51.496;7.210;2023-01-01T10:07:53;4.93;;;2.03;;
2966;SDS011;1493;51.496;7.210;2023-01-01T10:10:27;2.87;;;1.50;;
2966;SDS011;1493;51.496;7.210;2023-01-01T10:13:05;7.20;;;1.60;;
2966;SDS011;1493;51.496;7.210;2023-01-01T10:15:40;6.67;;;1.83;;
2966;SDS011;1493;51.496;7.210;2023-01-01T10:18:12;5.80;;;2.03;;
2966;SDS011;1493;51.496;7.210;2023-01-01T10:20:43;7.77;;;2.10;;
2966;SDS011;1493;51.496;7.210;2023-01-01T10:23:13;4.10;;;1.70;;
2966;SDS011;1493;51.496;7.210;2023-01-01T10:25:45;5.70;;;1.57;;
2966;SDS011;1493;51.496;7.210;2023-01-01T10:28:14;3.90;;;1.70;;
2966;SDS011;1493;51.496;7.210;2023-01-01T10:30:48;3.23;;;1.67;;
2966;SDS011;1493;51.496;7.210;2023-01-01T10:33:18;3.93;;;1.70;;
2966;SDS011;1493;51.496;7.210;2023-01-01T10:35:45;6.40;;;1.77;;
2966;SDS011;1493;51.496;7.210;2023-01-01T10:38:16;4.20;;;2.00;;
2966;SDS011;1493;51.496;7.210;2023-01-01T10:40:47;6.13;;;2.10;;
2966;SDS011;1493;51.496;7.210;2023-01-01T10:43:16;8.23;;;2.20;;
2966;SDS011;1493;51.496;7.210;2023-01-01T10:45:43;16.77;;;8.03;;
2966;SDS011;1493;51.496;7.210;2023-01-01T10:48:16;5.03;;;1.70;;
2966;SDS011;1493;51.496;7.210;2023-01-01T10:50:47;6.53;;;2.90;;
2966;SDS011;1493;51.496;7.210;2023-01-01T10:53:19;4.03;;;2.17;;
2966;SDS011;1493;51.496;7.210;2023-01-01T10:55:49;5.30;;;2.20;;
2966;SDS011;1493;51.496;7.210;2023-01-01T10:58:31;3.30;;;1.43;;
2966;SDS011;1493;51.496;7.210;2023-01-01T11:01:01;5.60;;;2.33;;
2966;SDS011;1493;51.496;7.210;2023-01-01T11:03:29;5.13;;;1.50;;
2966;SDS011;1493;51.496;7.210;2023-01-01T11:06:01;6.10;;;2.07;;
2966;SDS011;1493;51.496;7.210;2023-01-01T11:08:31;4.93;;;1.80;;
2966;SDS011;1493;51.496;7.210;2023-01-01T11:11:01;5.07;;;1.60;;
2966;SDS011;1493;51.496;7.210;2023-01-01T11:13:30;8.83;;;1.83;;
2966;SDS011;1493;51.496;7.210;2023-01-01T11:15:59;3.73;;;1.47;;
2966;SDS011;1493;51.496;7.210;2023-01-01T11:18:26;4.60;;;1.90;;
2966;SDS011;1493;51.496;7.210;2023-01-01T11:21:00;3.60;;;1.70;;
2966;SDS011;1493;51.496;7.210;2023-01-01T11:23:29;4.90;;;1.77;;
2966;SDS011;1493;51.496;7.210;2023-01-01T11:25:58;6.33;;;2.17;;
2966;SDS011;1493;51.496;7.210;2023-01-01T11:28:27;4.23;;;1.93;;
2966;SDS011;1493;51.496;7.210;2023-01-01T11:31:02;8.10;;;2.20;;
2966;SDS011;1493;51.496;7.210;2023-01-01T11:33:35;5.07;;;1.97;;
2966;SDS011;1493;51.496;7.210;2023-01-01T11:36:08;5.83;;;1.80;;
2966;SDS011;1493;51.496;7.210;2023-01-01T11:38:35;6.03;;;1.90;;
2966;SDS011;1493;51.496;7.210;2023-01-01T11:41:03;4.00;;;1.60;;
2966;SDS011;1493;51.496;7.210;2023-01-01T11:43:36;4.87;;;1.67;;
2966;SDS011;1493;51.496;7.210;2023-01-01T11:46:06;5.70;;;1.90;;
2966;SDS011;1493;51.496;7.210;2023-01-01T11:48:35;5.53;;;2.07;;
2966;SDS011;1493;51.496;7.210;2023-01-01T11:51:07;3.90;;;1.90;;
2966;SDS011;1493;51.496;7.210;2023-01-01T11:53:37;9.37;;;1.93;;
2966;SDS011;1493;51.496;7.210;2023-01-01T11:56:07;4.43;;;1.70;;
2966;SDS011;1493;51.496;7.210;2023-01-01T11:58:42;3.57;;;1.53;;
2966;SDS011;1493;51.496;7.210;2023-01-01T12:01:18;9.90;;;2.17;;
2966;SDS011;1493;51.496;7.210;2023-01-01T12:03:52;7.90;;;2.20;;
2966;SDS011;1493;51.496;7.210;2023-01-01T12:06:23;6.10;;;1.70;;
2966;SDS011;1493;51.496;7.210;2023-01-01T12:08:58;5.73;;;1.73;;
2966;SDS011;1493;51.496;7.210;2023-01-01T12:11:32;6.13;;;2.10;;
2966;SDS011;1493;51.496;7.210;2023-01-01T12:14:16;4.60;;;2.03;;
2966;SDS011;1493;51.496;7.210;2023-01-01T12:16:49;5.47;;;1.50;;
2966;SDS011;1493;51.496;7.210;2023-01-01T12:19:21;5.33;;;1.87;;
2966;SDS011;1493;51.496;7.210;2023-01-01T12:21:50;6.60;;;1.63;;
2966;SDS011;1493;51.496;7.210;2023-01-01T12:24:22;3.57;;;1.63;;
2966;SDS011;1493;51.496;7.210;2023-01-01T12:26:56;3.60;;;1.73;;
2966;SDS011;1493;51.496;7.210;2023-01-01T12:29:49;6.87;;;2.70;;
2966;SDS011;1493;51.496;7.210;2023-01-01T12:32:31;8.30;;;2.33;;
2966;SDS011;1493;51.496;7.210;2023-01-01T12:35:14;9.40;;;3.17;;
2966;SDS011;1493;51.496;7.210;2023-01-01T12:37:53;7.23;;;1.77;;
2966;SDS011;1493;51.496;7.210;2023-01-01T12:43:19;6.63;;;1.63;;
2966;SDS011;1493;51.496;7.210;2023-01-01T12:45:58;10.40;;;2.30;;
2966;SDS011;1493;51.496;7.210;2023-01-01T12:48:55;5.23;;;1.67;;
2966;SDS011;1493;51.496;7.210;2023-01-01T12:51:39;4.67;;;1.80;;
2966;SDS011;1493;51.496;7.210;2023-01-01T12:54:26;4.83;;;1.80;;
2966;SDS011;1493;51.496;7.210;2023-01-01T12:57:07;8.10;;;2.20;;
2966;SDS011;1493;51.496;7.210;2023-01-01T12:59:38;5.30;;;2.23;;
2966;SDS011;1493;51.496;7.210;2023-01-01T13:02:12;11.40;;;2.60;;
2966;SDS011;1493;51.496;7.210;2023-01-01T13:04:43;3.90;;;1.57;;
2966;SDS011;1493;51.496;7.210;2023-01-01T13:07:12;8.43;;;1.60;;
2966;SDS011;1493;51.496;7.210;2023-01-01T13:09:42;8.97;;;2.27;;
2966;SDS011;1493;51.496;7.210;2023-01-01T13:12:13;7.13;;;2.40;;
2966;SDS011;1493;51.496;7.210;2023-01-01T13:14:43;5.73;;;1.80;;
2966;SDS011;1493;51.496;7.210;2023-01-01T13:17:17;2.67;;;1.60;;
2966;SDS011;1493;51.496;7.210;2023-01-01T13:19:46;3.97;;;1.53;;
2966;SDS011;1493;51.496;7.210;2023-01-01T13:25:16;2.80;;;1.20;;
2966;SDS011;1493;51.496;7.210;2023-01-01T13:28:02;4.90;;;1.60;;
2966;SDS011;1493;51.496;7.210;2023-01-01T13:30:47;7.63;;;1.63;;
2966;SDS011;1493;51.496;7.210;2023-01-01T13:33:21;7.77;;;2.70;;
2966;SDS011;1493;51.496;7.210;2023-01-01T13:39:02;7.73;;;1.50;;
2966;SDS011;1493;51.496;7.210;2023-01-01T13:41:29;11.17;;;2.13;;
2966;SDS011;1493;51.496;7.210;2023-01-01T13:44:17;4.47;;;1.67;;
2966;SDS011;1493;51.496;7.210;2023-01-01T13:46:54;5.30;;;1.43;;
2966;SDS011;1493;51.496;7.210;2023-01-01T13:49:40;4.67;;;1.57;;
2966;SDS011;1493;51.496;7.210;2023-01-01T13:52:27;8.00;;;1.97;;
2966;SDS011;1493;51.496;7.210;2023-01-01T13:58:15;6.57;;;2.47;;
2966;SDS011;1493;51.496;7.210;2023-01-01T14:04:04;9.27;;;2.90;;
2966;SDS011;1493;51.496;7.210;2023-01-01T14:06:42;4.00;;;2.20;;
2966;SDS011;1493;51.496;7.210;2023-01-01T14:09:13;5.60;;;1.67;;
2966;SDS011;1493;51.496;7.210;2023-01-01T14:11:44;3.83;;;2.10;;
2966;SDS011;1493;51.496;7.210;2023-01-01T14:14:18;5.00;;;2.10;;
2966;SDS011;1493;51.496;7.210;2023-01-01T14:16:50;4.73;;;2.00;;
2966;SDS011;1493;51.496;7.210;2023-01-01T14:19:20;4.73;;;1.47;;
2966;SDS011;1493;51.496;7.210;2023-01-01T14:21:52;5.60;;;2.20;;
2966;SDS011;1493;51.496;7.210;2023-01-01T14:24:20;7.43;;;2.07;;
2966;SDS011;1493;51.496;7.210;2023-01-01T14:26:55;4.27;;;2.40;;
2966;SDS011;1493;51.496;7.210;2023-01-01T14:29:24;4.30;;;2.00;;
2966;SDS011;1493;51.496;7.210;2023-01-01T14:31:53;5.60;;;2.27;;
2966;SDS011;1493;51.496;7.210;2023-01-01T14:34:25;2.90;;;1.47;;
2966;SDS011;1493;51.496;7.210;2023-01-01T14:36:56;5.47;;;1.90;;
2966;SDS011;1493;51.496;7.210;2023-01-01T14:39:30;6.00;;;2.07;;
2966;SDS011;1493;51.496;7.210;2023-01-01T14:41:59;8.50;;;2.50;;
2966;SDS011;1493;51.496;7.210;2023-01-01T14:44:31;7.20;;;2.37;;
2966;SDS011;1493;51.496;7.210;2023-01-01T14:47:02;4.77;;;2.60;;
2966;SDS011;1493;51.496;7.210;2023-01-01T14:49:34;4.90;;;2.87;;
2966;SDS011;1493;51.496;7.210;2023-01-01T14:52:06;6.53;;;3.10;;
2966;SDS011;1493;51.496;7.210;2023-01-01T14:54:41;7.40;;;2.90;;
2966;SDS011;1493;51.496;7.210;2023-01-01T14:57:26;7.60;;;3.10;;
2966;SDS011;1493;51.496;7.210;2023-01-01T14:59:55;5.93;;;2.17;;
2966;SDS011;1493;51.496;7.210;2023-01-01T15:02:22;4.10;;;1.80;;
2966;SDS011;1493;51.496;7.210;2023-01-01T15:04:52;5.90;;;3.07;;
2966;SDS011;1493;51.496;7.210;2023-01-01T15:07:21;7.20;;;3.37;;
2966;SDS011;1493;51.496;7.210;2023-01-01T15:09:49;7.90;;;3.47;;
2966;SDS011;1493;51.496;7.210;2023-01-01T15:12:18;6.33;;;4.07;;
2966;SDS011;1493;51.496;7.210;2023-01-01T15:14:46;6.03;;;4.57;;
2966;SDS011;1493;51.496;7.210;2023-01-01T15:17:15;6.83;;;3.47;;
2966;SDS011;1493;51.496;7.210;2023-01-01T15:19:44;8.00;;;3.13;;
2966;SDS011;1493;51.496;7.210;2023-01-01T15:22:14;7.20;;;2.73;;
2966;SDS011;1493;51.496;7.210;2023-01-01T15:24:49;8.93;;;2.97;;
2966;SDS011;1493;51.496;7.210;2023-01-01T15:27:20;5.23;;;2.40;;
2966;SDS011;1493;51.496;7.210;2023-01-01T15:29:50;7.27;;;2.90;;
2966;SDS011;1493;51.496;7.210;2023-01-01T15:32:22;5.57;;;2.47;;
2966;SDS011;1493;51.496;7.210;2023-01-01T15:34:50;5.37;;;2.00;;
2966;SDS011;1493;51.496;7.210;2023-01-01T15:37:20;5.70;;;2.20;;
2966;SDS011;1493;51.496;7.210;2023-01-01T15:39:53;7.20;;;2.30;;
2966;SDS011;1493;51.496;7.210;2023-01-01T15:42:32;4.67;;;1.70;;
2966;SDS011;1493;51.496;7.210;2023-01-01T15:45:10;6.27;;;1.83;;
2966;SDS011;1493;51.496;7.210;2023-01-01T15:47:40;7.93;;;1.83;;
2966;SDS011;1493;51.496;7.210;2023-01-01T15:50:07;5.57;;;1.90;;